createdAt,value
2023-02-24T00:00:17.024Z,97998.81
2023-02-24T00:01:18.964Z,97996.47
2023-02-24T00:02:20.614Z,98001.47
2023-02-24T00:03:22.099Z,98002.56
2023-02-24T00:04:23.479Z,98004.41
2023-02-24T00:05:25.340Z,97997.53
2023-02-24T00:06:27.713Z,98001.75
2023-02-24T00:07:29.140Z,97999.09
2023-02-24T00:08:30.841Z,98002.38
2023-02-24T00:09:33.949Z,97998.63
2023-02-24T00:10:35.405Z,97998.63
2023-02-24T00:11:38.120Z,98000.50
2023-02-24T00:12:39.761Z,98007.66
2023-02-24T00:13:41.714Z,97998.63
2023-02-24T00:14:44.774Z,97996.78
2023-02-24T00:15:46.243Z,97997.09
2023-02-24T00:16:48.361Z,98000.03
2023-02-24T00:17:49.799Z,97997.41
2023-02-24T00:18:51.241Z,97993.94
2023-02-24T00:19:52.657Z,97996.59
2023-02-24T00:20:54.129Z,97988.66
2023-02-24T00:21:55.532Z,97985.22
2023-02-24T00:22:56.871Z,97987.88
2023-02-24T00:23:58.225Z,97991.31
2023-02-24T00:24:59.632Z,97986.81
2023-02-24T00:26:02.479Z,97985.22
2023-02-24T00:27:05.187Z,97988.97
2023-02-24T00:28:06.523Z,97990.84
2023-02-24T00:29:09.275Z,97984.00
2023-02-24T00:30:10.917Z,97982.91
2023-02-24T00:31:13.661Z,97979.78
2023-02-24T00:32:15.411Z,97980.25
2023-02-24T00:33:16.816Z,97977.63
2023-02-24T00:34:18.105Z,97974.50
2023-02-24T00:35:19.514Z,97971.88
2023-02-24T00:36:21.294Z,97967.16
2023-02-24T00:37:22.700Z,97974.00
2023-02-24T00:38:24.069Z,97975.56
2023-02-24T00:39:26.038Z,97974.97
2023-02-24T00:40:27.353Z,97966.56
2023-02-24T00:41:30.338Z,97965.47
2023-02-24T00:42:32.783Z,97966.38
2023-02-24T00:43:34.267Z,97967.47
2023-02-24T00:44:44.541Z,97969.81
2023-02-24T00:45:45.874Z,97962.00
2023-02-24T00:46:48.167Z,97964.97
2023-02-24T00:47:49.796Z,97968.22
2023-02-24T00:48:52.269Z,97963.25
2023-02-24T00:49:53.652Z,97965.88
2023-02-24T00:50:55.216Z,97965.56
2023-02-24T00:51:56.627Z,97962.63
2023-02-24T00:52:58.012Z,97967.13
2023-02-24T00:53:59.739Z,97967.91
2023-02-24T00:55:01.341Z,97971.16
2023-02-24T00:56:04.226Z,97962.47
2023-02-24T00:57:05.523Z,97966.66
2023-02-24T00:58:06.807Z,97963.25
2023-02-24T00:59:10.096Z,97965.88
2023-02-24T01:00:12.894Z,97968.81
2023-02-24T01:01:15.867Z,97958.53
2023-02-24T01:02:17.280Z,97965.69
2023-02-24T01:03:19.079Z,97965.25
2023-02-24T01:04:21.005Z,97960.53
2023-02-24T01:05:22.483Z,97953.69
2023-02-24T01:06:26.325Z,97956.34
2023-02-24T01:07:27.593Z,97959.00
2023-02-24T01:08:29.310Z,97955.84
2023-02-24T01:09:31.653Z,97949.00
2023-02-24T01:10:33.196Z,97955.06
2023-02-24T01:11:35.819Z,97953.53
2023-02-24T01:12:37.371Z,97958.81
2023-02-24T01:13:38.656Z,97957.72
2023-02-24T01:14:43.260Z,97965.66
2023-02-24T01:15:45.258Z,97956.94
2023-02-24T01:16:46.547Z,97956.16
2023-02-24T01:17:48.803Z,97953.84
2023-02-24T01:18:50.260Z,97956.75
2023-02-24T01:19:51.547Z,97957.84
2023-02-24T01:20:52.800Z,97955.22
2023-02-24T01:21:54.096Z,97950.69
2023-02-24T01:22:55.355Z,97950.41
2023-02-24T01:23:56.689Z,97951.47
2023-02-24T01:24:57.976Z,97946.19
2023-02-24T01:25:59.443Z,97945.41
2023-02-24T01:27:02.012Z,97949.16
2023-02-24T01:28:04.931Z,97943.09
2023-02-24T01:29:06.463Z,97938.88
2023-02-24T01:30:09.632Z,97946.81
2023-02-24T01:31:14.216Z,97940.25
2023-02-24T01:32:20.623Z,97948.19
2023-02-24T01:33:22.108Z,97941.34
2023-02-24T01:34:25.293Z,97940.56
2023-02-24T01:35:26.693Z,97933.72
2023-02-24T01:36:28.128Z,97940.56
2023-02-24T01:37:29.412Z,97935.28
2023-02-24T01:38:31.072Z,97937.94
2023-02-24T01:39:33.727Z,97933.72
2023-02-24T01:40:37.319Z,97926.25
2023-02-24T01:41:39.979Z,97937.63
2023-02-24T01:42:44.726Z,97934.19
2023-02-24T01:43:58.032Z,97930.47
2023-02-24T01:45:04.612Z,97928.13
2023-02-24T01:46:05.882Z,97928.13
2023-02-24T01:47:07.319Z,97933.09
2023-02-24T01:48:10.077Z,97932.31
2023-02-24T01:49:29.529Z,97934.97
2023-02-24T01:50:32.550Z,97931.56
2023-02-24T01:51:39.902Z,97935.28
2023-02-24T01:52:42.144Z,97934.50
2023-02-24T01:53:44.722Z,97928.44
2023-02-24T01:54:48.611Z,97930.00
2023-02-24T01:55:50.868Z,97923.16
2023-02-24T01:56:52.919Z,97925.03
2023-02-24T01:57:55.975Z,97919.25
2023-02-24T01:58:58.826Z,97929.22
2023-02-24T02:00:00.654Z,97925.03
2023-02-24T02:01:02.075Z,97921.88
2023-02-24T02:02:05.194Z,97922.66
2023-02-24T02:03:09.576Z,97920.03
2023-02-24T02:04:23.427Z,97918.16
2023-02-24T02:05:28.358Z,97918.16
2023-02-24T02:06:31.081Z,97925.31
2023-02-24T02:07:32.436Z,97926.41
2023-02-24T02:08:34.764Z,97926.41
2023-02-24T02:09:36.298Z,97926.41
2023-02-24T02:10:38.631Z,97926.41
2023-02-24T02:11:39.895Z,97922.97
2023-02-24T02:12:45.107Z,97927.16
2023-02-24T02:13:48.550Z,97921.09
2023-02-24T02:14:51.586Z,97917.69
2023-02-24T02:16:09.629Z,97912.72
2023-02-24T02:17:21.399Z,97914.53
2023-02-24T02:18:36.807Z,97908.22
2023-02-24T02:19:59.015Z,97910.53
2023-02-24T02:21:21.672Z,97898.69
2023-02-24T02:22:29.050Z,97905.06
2023-02-24T02:23:38.828Z,97909.88
2023-02-24T02:24:45.653Z,97901.19
2023-02-24T02:25:55.829Z,97906.16
2023-02-24T02:27:15.160Z,97897.13
2023-02-24T02:28:36.871Z,97894.81
2023-02-24T02:29:59.247Z,97898.22
2023-02-24T02:31:19.822Z,97893.25
2023-02-24T02:32:40.271Z,97897.75
2023-02-24T02:34:00.199Z,97895.91
2023-02-24T02:35:04.726Z,97891.38
2023-02-24T02:36:15.006Z,97895.13
2023-02-24T02:37:36.620Z,97897.44
2023-02-24T02:38:56.969Z,97897.75
2023-02-24T02:40:21.964Z,97894.63
2023-02-24T02:41:27.744Z,97892.00
2023-02-24T02:42:40.675Z,97897.28
2023-02-24T02:43:47.224Z,97895.72
2023-02-24T02:44:51.665Z,97891.53
2023-02-24T02:46:08.065Z,97889.97
2023-02-24T02:47:12.727Z,97888.09
2023-02-24T02:48:19.001Z,97888.09
2023-02-24T02:49:31.551Z,97888.09
2023-02-24T02:50:41.740Z,97883.91
2023-02-24T02:51:49.218Z,97888.38
2023-02-24T02:52:53.079Z,97884.97
2023-02-24T02:54:00.344Z,97884.69
2023-02-24T02:55:04.875Z,97883.91
2023-02-24T02:56:16.023Z,97874.41
2023-02-24T02:57:23.762Z,97879.41
2023-02-24T02:58:29.634Z,97874.88
2023-02-24T02:59:35.966Z,97876.75
2023-02-24T03:00:40.923Z,97878.31
2023-02-24T03:01:43.557Z,97869.88
2023-02-24T03:02:47.369Z,97867.75
2023-02-24T03:03:53.991Z,97868.81
2023-02-24T03:05:00.524Z,97866.97
2023-02-24T03:06:05.458Z,97863.53
2023-02-24T03:07:08.955Z,97860.41
2023-02-24T03:08:12.754Z,97855.44
2023-02-24T03:09:18.839Z,97858.09
2023-02-24T03:10:22.987Z,97865.69
2023-02-24T03:11:25.773Z,97857.00
2023-02-24T03:12:29.446Z,97855.44
2023-02-24T03:13:34.488Z,97860.22
2023-02-24T03:14:41.784Z,97854.94
2023-02-24T03:15:44.392Z,97852.47
2023-02-24T03:16:48.412Z,97854.34
2023-02-24T03:17:53.677Z,97853.88
2023-02-24T03:19:07.144Z,97849.97
2023-02-24T03:20:08.508Z,97852.94
2023-02-24T03:21:15.091Z,97851.84
2023-02-24T03:22:21.285Z,97845.00
2023-02-24T03:23:24.671Z,97839.41
2023-02-24T03:24:26.055Z,97846.56
2023-02-24T03:25:39.631Z,97846.09
2023-02-24T03:26:55.224Z,97850.59
2023-02-24T03:28:01.860Z,97850.88
2023-02-24T03:29:06.640Z,97847.47
2023-02-24T03:30:22.298Z,97850.88
2023-02-24T03:31:28.330Z,97853.06
2023-02-24T03:32:38.523Z,97851.19
2023-02-24T03:33:46.697Z,97847.47
2023-02-24T03:34:56.261Z,97849.31
2023-02-24T03:35:58.084Z,97848.56
2023-02-24T03:36:59.759Z,97844.81
2023-02-24T03:38:02.487Z,97848.25
2023-02-24T03:39:04.398Z,97850.69
2023-02-24T03:40:08.459Z,97854.16
2023-02-24T03:41:10.058Z,97845.13
2023-02-24T03:42:17.620Z,97848.25
2023-02-24T03:43:23.741Z,97853.84
2023-02-24T03:44:25.120Z,97849.31
2023-02-24T03:45:29.889Z,97851.19
2023-02-24T03:46:32.058Z,97850.59
2023-02-24T03:47:36.215Z,97848.72
2023-02-24T03:48:45.120Z,97851.66
2023-02-24T03:49:47.771Z,97849.78
2023-02-24T03:50:51.929Z,97850.88
2023-02-24T03:52:20.807Z,97842.19
2023-02-24T03:53:41.838Z,97844.81
2023-02-24T03:54:43.952Z,97851.97
2023-02-24T03:55:58.073Z,97843.72
2023-02-24T03:57:19.420Z,97848.25
2023-02-24T03:58:23.425Z,97854.31
2023-02-24T03:59:27.957Z,97845.91
2023-02-24T04:00:34.485Z,97844.03
2023-02-24T04:01:50.424Z,97840.13
2023-02-24T04:03:01.009Z,97839.66
2023-02-24T04:04:02.272Z,97844.94
2023-02-24T04:05:20.511Z,97843.22
2023-02-24T04:06:39.085Z,97843.53
2023-02-24T04:07:48.048Z,97843.03
2023-02-24T04:08:56.970Z,97842.25
2023-02-24T04:10:21.146Z,97839.16
2023-02-24T04:11:36.513Z,97844.91
2023-02-24T04:12:43.456Z,97841.16
2023-02-24T04:14:03.923Z,97840.13
2023-02-24T04:15:12.433Z,97842.09
2023-02-24T04:16:21.840Z,97844.75
2023-02-24T04:17:28.970Z,97846.91
2023-02-24T04:18:31.988Z,97842.09
2023-02-24T04:19:35.782Z,97848.44
2023-02-24T04:20:38.234Z,97843.47
2023-02-24T04:21:41.529Z,97837.09
2023-02-24T04:22:47.608Z,97842.69
2023-02-24T04:23:50.176Z,97846.91
2023-02-24T04:24:55.484Z,97849.53
2023-02-24T04:25:56.981Z,97840.84
2023-02-24T04:27:00.703Z,97843.16
2023-02-24T04:28:05.251Z,97845.03
2023-02-24T04:29:08.362Z,97847.66
2023-02-24T04:30:11.643Z,97846.13
2023-02-24T04:31:13.582Z,97839.75
2023-02-24T04:32:18.452Z,97840.84
2023-02-24T04:33:20.195Z,97842.38
2023-02-24T04:34:21.708Z,97837.88
2023-02-24T04:35:25.234Z,97843.94
2023-02-24T04:36:27.026Z,97834.47
2023-02-24T04:37:28.323Z,97832.44
2023-02-24T04:38:29.784Z,97829.81
2023-02-24T04:39:31.981Z,97826.38
2023-02-24T04:40:35.276Z,97832.72
2023-02-24T04:41:36.560Z,97833.81
2023-02-24T04:42:38.594Z,97831.19
2023-02-24T04:43:39.819Z,97824.66
2023-02-24T04:44:41.222Z,97827.28
2023-02-24T04:45:42.605Z,97835.22
2023-02-24T04:46:44.492Z,97832.84
2023-02-24T04:47:46.258Z,97831.31
2023-02-24T04:48:47.474Z,97827.88
2023-02-24T04:49:48.758Z,97822.91
2023-02-24T04:50:49.999Z,97820.44
2023-02-24T04:51:51.382Z,97825.44
2023-02-24T04:52:54.249Z,97818.56
2023-02-24T04:53:55.564Z,97818.56
2023-02-24T04:54:56.799Z,97813.91
2023-02-24T04:56:02.108Z,97815.00
2023-02-24T04:57:03.563Z,97816.06
2023-02-24T04:58:04.841Z,97819.78
2023-02-24T04:59:06.666Z,97806.56
2023-02-24T05:00:09.326Z,97808.94
2023-02-24T05:01:11.096Z,97801.31
2023-02-24T05:02:12.521Z,97803.94
2023-02-24T05:03:14.009Z,97801.31
2023-02-24T05:04:15.588Z,97792.13
2023-02-24T05:05:18.368Z,97790.56
2023-02-24T05:06:19.594Z,97792.13
2023-02-24T05:07:23.438Z,97793.19
2023-02-24T05:08:25.480Z,97785.91
2023-02-24T05:09:27.723Z,97785.91
2023-02-24T05:10:30.178Z,97785.59
2023-02-24T05:11:31.653Z,97776.88
2023-02-24T05:12:32.890Z,97785.13
2023-02-24T05:13:34.249Z,97786.66
2023-02-24T05:14:42.785Z,97781.72
2023-02-24T05:15:45.771Z,97782.00
2023-02-24T05:16:47.874Z,97782.00
2023-02-24T05:17:49.398Z,97782.75
2023-02-24T05:18:50.854Z,97780.13
2023-02-24T05:19:52.027Z,97775.16
2023-02-24T05:20:54.257Z,97777.78
2023-02-24T05:21:55.565Z,97769.88
2023-02-24T05:22:56.786Z,97774.25
2023-02-24T05:23:58.235Z,97775.34
2023-02-24T05:24:59.507Z,97773.00
2023-02-24T05:26:01.394Z,97771.75
2023-02-24T05:27:03.290Z,97770.47
2023-02-24T05:28:05.194Z,97767.53
2023-02-24T05:29:08.881Z,97763.34
2023-02-24T05:30:10.586Z,97768.63
2023-02-24T05:31:20.430Z,97765.69
2023-02-24T05:32:22.517Z,97770.19
2023-02-24T05:33:24.023Z,97767.53
2023-02-24T05:34:26.765Z,97759.13
2023-02-24T05:35:28.098Z,97762.84
2023-02-24T05:36:31.351Z,97763.63
2023-02-24T05:37:36.839Z,97758.06
2023-02-24T05:38:38.739Z,97756.22
2023-02-24T05:39:39.988Z,97754.81
2023-02-24T05:40:41.418Z,97757.00
2023-02-24T05:41:43.868Z,97752.31
2023-02-24T05:42:45.315Z,97749.97
2023-02-24T05:43:47.965Z,97746.56
2023-02-24T05:44:49.180Z,97750.28
2023-02-24T05:45:51.414Z,97749.47
2023-02-24T05:46:53.986Z,97750.09
2023-02-24T05:47:55.422Z,97753.81
2023-02-24T05:48:57.768Z,97754.09
2023-02-24T05:49:59.568Z,97748.84
2023-02-24T05:51:05.234Z,97745.13
2023-02-24T05:52:08.296Z,97750.41
2023-02-24T05:53:09.824Z,97747.78
2023-02-24T05:54:12.732Z,97755.69
2023-02-24T05:55:14.436Z,97745.41
2023-02-24T05:56:16.072Z,97750.88
2023-02-24T05:57:18.736Z,97755.69
2023-02-24T05:58:20.010Z,97748.84
2023-02-24T05:59:21.582Z,97748.84
2023-02-24T06:00:23.288Z,97744.19
2023-02-24T06:01:26.120Z,97747.59
2023-02-24T06:02:27.789Z,97745.53
2023-02-24T06:03:29.650Z,97741.34
2023-02-24T06:04:30.945Z,97744.78
2023-02-24T06:05:32.342Z,97735.75
2023-02-24T06:06:41.490Z,97740.25
2023-02-24T06:07:42.877Z,97742.13
2023-02-24T06:08:44.926Z,97744.31
2023-02-24T06:09:46.899Z,97743.03
2023-02-24T06:10:48.382Z,97738.84
2023-02-24T06:11:49.951Z,97741.78
2023-02-24T06:12:53.969Z,97734.78
2023-02-24T06:13:56.379Z,97736.50
2023-02-24T06:14:57.831Z,97738.66
2023-02-24T06:15:59.767Z,97732.41
2023-02-24T06:17:01.177Z,97740.81
2023-02-24T06:18:02.447Z,97739.09
2023-02-24T06:19:04.623Z,97739.09
2023-02-24T06:20:06.434Z,97726.69
2023-02-24T06:21:07.748Z,97729.97
2023-02-24T06:22:11.987Z,97732.41
2023-02-24T06:23:13.302Z,97727.44
2023-02-24T06:24:14.841Z,97730.41
2023-02-24T06:25:16.236Z,97732.53
2023-02-24T06:26:17.684Z,97729.91
2023-02-24T06:27:21.890Z,97733.63
2023-02-24T06:28:23.954Z,97730.22
2023-02-24T06:29:25.243Z,97728.34
2023-02-24T06:30:26.781Z,97733.94
2023-02-24T06:31:28.216Z,97731.00
2023-02-24T06:32:29.650Z,97729.91
2023-02-24T06:33:31.157Z,97727.75
2023-02-24T06:34:32.375Z,97728.53
2023-02-24T06:35:33.626Z,97729.63
2023-02-24T06:36:34.904Z,97726.97
2023-02-24T06:37:36.122Z,97728.03
2023-02-24T06:38:37.387Z,97726.19
2023-02-24T06:39:38.924Z,97731.19
2023-02-24T06:40:40.505Z,97721.09
2023-02-24T06:41:41.757Z,97729.78
2023-02-24T06:42:47.178Z,97729.00
2023-02-24T06:43:48.608Z,97720.63
2023-02-24T06:44:49.938Z,97721.72
2023-02-24T06:45:51.533Z,97722.94
2023-02-24T06:46:54.385Z,97719.19
2023-02-24T06:47:55.802Z,97724.16
2023-02-24T06:48:58.303Z,97722.78
2023-02-24T06:49:59.528Z,97724.94
2023-02-24T06:51:04.587Z,97719.34
2023-02-24T06:52:05.802Z,97719.06
2023-02-24T06:53:07.271Z,97722.94
2023-02-24T06:54:08.560Z,97716.25
2023-02-24T06:55:10.171Z,97718.13
2023-02-24T06:56:12.520Z,97715.47
2023-02-24T06:57:13.998Z,97714.38
2023-02-24T06:58:17.930Z,97709.88
2023-02-24T06:59:19.154Z,97717.22
2023-02-24T07:00:21.936Z,97712.41
2023-02-24T07:01:25.300Z,97716.13
2023-02-24T07:02:27.044Z,97715.34
2023-02-24T07:03:28.744Z,97712.72
2023-02-24T07:04:30.060Z,97712.88
2023-02-24T07:05:32.576Z,97716.78
2023-02-24T07:06:36.337Z,97716.47
2023-02-24T07:07:37.591Z,97714.13
2023-02-24T07:08:39.151Z,97715.69
2023-02-24T07:09:40.639Z,97717.25
2023-02-24T07:10:41.843Z,97715.09
2023-02-24T07:11:46.737Z,97717.25
2023-02-24T07:12:48.342Z,97714.00
2023-02-24T07:13:49.641Z,97709.63
2023-02-24T07:14:52.877Z,97714.31
2023-02-24T07:15:54.392Z,97717.41
2023-02-24T07:16:55.806Z,97716.34
2023-02-24T07:17:57.600Z,97718.19
2023-02-24T07:18:59.970Z,97715.28
2023-02-24T07:20:01.506Z,97711.06
2023-02-24T07:21:03.745Z,97711.38
2023-02-24T07:22:05.186Z,97707.63
2023-02-24T07:23:06.412Z,97713.41
2023-02-24T07:24:08.360Z,97718.38
2023-02-24T07:25:09.788Z,97712.78
2023-02-24T07:26:13.250Z,97713.56
2023-02-24T07:27:15.997Z,97711.72
2023-02-24T07:28:17.320Z,97702.22
2023-02-24T07:29:18.588Z,97705.97
2023-02-24T07:30:21.468Z,97702.22
2023-02-24T07:31:24.136Z,97713.56
2023-02-24T07:32:25.861Z,97708.00
2023-02-24T07:33:27.191Z,97705.06
2023-02-24T07:34:29.445Z,97711.09
2023-02-24T07:35:30.782Z,97706.72
2023-02-24T07:36:32.522Z,97711.53
2023-02-24T07:37:33.863Z,97705.00
2023-02-24T07:38:38.537Z,97708.72
2023-02-24T07:39:39.955Z,97701.59
2023-02-24T07:40:41.263Z,97706.59
2023-02-24T07:41:42.766Z,97702.06
2023-02-24T07:42:44.196Z,97707.81
2023-02-24T07:43:45.483Z,97704.88
2023-02-24T07:44:47.067Z,97702.72
2023-02-24T07:45:48.515Z,97708.28
2023-02-24T07:46:50.298Z,97708.28
2023-02-24T07:47:51.590Z,97703.50
2023-02-24T07:48:53.616Z,97698.81
2023-02-24T07:49:55.409Z,97695.09
2023-02-24T07:50:56.715Z,97697.44
2023-02-24T07:51:58.460Z,97694.50
2023-02-24T07:52:59.757Z,97697.63
2023-02-24T07:54:01.784Z,97698.09
2023-02-24T07:55:03.200Z,97694.38
2023-02-24T07:56:11.851Z,97694.38
2023-02-24T07:57:13.083Z,97692.22
2023-02-24T07:58:14.364Z,97697.19
2023-02-24T07:59:17.335Z,97693.44
2023-02-24T08:00:21.035Z,97692.38
2023-02-24T08:01:23.778Z,97693.63
2023-02-24T08:02:26.361Z,97690.81
2023-02-24T08:03:28.050Z,97687.41
2023-02-24T08:04:30.416Z,97692.06
2023-02-24T08:05:36.887Z,97689.91
2023-02-24T08:06:39.712Z,97683.25
2023-02-24T08:07:40.957Z,97676.09
2023-02-24T08:08:42.812Z,97684.16
2023-02-24T08:09:44.196Z,97679.66
2023-02-24T08:10:45.607Z,97681.72
2023-02-24T08:11:46.838Z,97672.88
2023-02-24T08:12:48.105Z,97683.59
2023-02-24T08:13:49.375Z,97682.06
2023-02-24T08:14:52.107Z,97682.53
2023-02-24T08:15:53.640Z,97686.72
2023-02-24T08:16:55.868Z,97681.91
2023-02-24T08:17:58.423Z,97684.25
2023-02-24T08:18:59.836Z,97681.44
2023-02-24T08:20:01.561Z,97681.75
2023-02-24T08:21:03.044Z,97676.16
2023-02-24T08:22:04.332Z,97682.69
2023-02-24T08:23:05.618Z,97687.06
2023-02-24T08:24:13.224Z,97676.97
2023-02-24T08:25:15.678Z,97674.78
2023-02-24T08:26:17.192Z,97671.06
2023-02-24T08:27:19.770Z,97677.59
2023-02-24T08:28:21.201Z,97675.72
2023-02-24T08:29:22.995Z,97677.31
2023-02-24T08:30:25.773Z,97677.31
2023-02-24T08:31:27.179Z,97681.78
2023-02-24T08:32:31.776Z,97670.28
2023-02-24T08:33:34.175Z,97671.69
2023-02-24T08:34:38.519Z,97676.22
2023-02-24T08:35:39.867Z,97666.72
2023-02-24T08:36:42.010Z,97673.84
2023-02-24T08:37:45.126Z,97665.31
2023-02-24T08:38:46.483Z,97662.69
2023-02-24T08:39:47.753Z,97665.31
2023-02-24T08:40:50.512Z,97664.56
2023-02-24T08:41:53.167Z,97659.72
2023-02-24T08:42:54.476Z,97661.00
2023-02-24T08:43:55.700Z,97659.91
2023-02-24T08:44:56.904Z,97650.88
2023-02-24T08:46:03.345Z,97656.94
2023-02-24T08:47:04.685Z,97653.53
2023-02-24T08:48:05.946Z,97650.88
2023-02-24T08:49:10.066Z,97655.09
2023-02-24T08:50:13.505Z,97658.38
2023-02-24T08:51:20.483Z,97651.69
2023-02-24T08:52:21.860Z,97659.31
2023-02-24T08:53:24.301Z,97649.53
2023-02-24T08:54:25.907Z,97648.75
2023-02-24T08:55:27.438Z,97648.09
2023-02-24T08:56:30.313Z,97657.13
2023-02-24T08:57:33.949Z,97650.28
2023-02-24T08:58:36.056Z,97647.34
2023-02-24T08:59:37.922Z,97648.44
2023-02-24T09:00:39.916Z,97650.59
2023-02-24T09:01:41.502Z,97649.81
2023-02-24T09:02:42.728Z,97642.53
2023-02-24T09:03:47.893Z,97645.63
2023-02-24T09:04:59.685Z,97643.47
2023-02-24T09:06:06.062Z,97636.44
2023-02-24T09:07:11.533Z,97644.38
2023-02-24T09:08:13.326Z,97642.66
2023-02-24T09:09:18.985Z,97646.56
2023-02-24T09:10:20.665Z,97646.25
2023-02-24T09:11:22.405Z,97643.16
2023-02-24T09:12:25.196Z,97647.63
2023-02-24T09:13:26.822Z,97645.66
2023-02-24T09:14:29.615Z,97652.00
2023-02-24T09:15:31.087Z,97643.00
2023-02-24T09:16:32.507Z,97647.97
2023-02-24T09:17:34.213Z,97638.94
2023-02-24T09:18:35.617Z,97642.84
2023-02-24T09:19:38.652Z,97641.59
2023-02-24T09:20:41.645Z,97635.53
2023-02-24T09:21:43.709Z,97645.47
2023-02-24T09:22:46.914Z,97636.16
2023-02-24T09:23:48.182Z,97628.38
2023-02-24T09:24:49.382Z,97636.94
2023-02-24T09:25:50.652Z,97643.16
2023-02-24T09:26:54.185Z,97630.09
2023-02-24T09:28:04.243Z,97632.41
2023-02-24T09:29:05.464Z,97624.50
2023-02-24T09:30:07.462Z,97630.09
2023-02-24T09:31:09.041Z,97620.28
2023-02-24T09:32:11.032Z,97628.34
2023-02-24T09:33:14.297Z,97630.09
2023-02-24T09:34:15.690Z,97632.25
2023-02-24T09:35:17.004Z,97629.63
2023-02-24T09:36:19.873Z,97622.47
2023-02-24T09:37:21.160Z,97624.94
2023-02-24T09:38:22.764Z,97618.88
2023-02-24T09:39:24.862Z,97617.16
2023-02-24T09:40:27.528Z,97618.41
2023-02-24T09:41:45.885Z,97616.06
2023-02-24T09:42:47.263Z,97618.22
2023-02-24T09:43:48.705Z,97620.56
2023-02-24T09:44:51.908Z,97619.81
2023-02-24T09:45:56.215Z,97616.06
2023-02-24T09:47:20.618Z,97613.41
2023-02-24T09:48:35.163Z,97616.50
2023-02-24T09:49:44.421Z,97611.97
2023-02-24T09:51:01.960Z,97618.38
2023-02-24T09:52:04.200Z,97616.50
2023-02-24T09:53:11.459Z,97615.09
2023-02-24T09:54:19.434Z,97607.28
2023-02-24T09:55:31.522Z,97616.00
2023-02-24T09:56:36.971Z,97615.22
2023-02-24T09:57:49.158Z,97614.00
2023-02-24T09:58:59.346Z,97611.19
2023-02-24T10:00:03.956Z,97610.25
2023-02-24T10:01:20.838Z,97608.56
2023-02-24T10:02:44.828Z,97604.38
2023-02-24T10:04:18.347Z,97604.22
2023-02-24T10:05:31.367Z,97603.44
2023-02-24T10:06:38.339Z,97602.06
2023-02-24T10:07:40.930Z,97600.94
2023-02-24T10:08:53.302Z,97609.34
2023-02-24T10:09:59.277Z,97607.63
2023-02-24T10:11:01.492Z,97597.97
2023-02-24T10:12:22.975Z,97603.59
2023-02-24T10:13:25.525Z,97608.56
2023-02-24T10:14:44.075Z,97604.53
2023-02-24T10:15:47.416Z,97603.44
2023-02-24T10:16:49.202Z,97599.84
2023-02-24T10:17:50.763Z,97596.44
2023-02-24T10:18:55.999Z,97599.53
2023-02-24T10:20:00.217Z,97599.69
2023-02-24T10:21:16.200Z,97597.06
2023-02-24T10:22:17.467Z,97601.25
2023-02-24T10:23:32.266Z,97603.88
2023-02-24T10:24:46.960Z,97606.09
2023-02-24T10:25:51.745Z,97600.34
2023-02-24T10:27:07.617Z,97600.34
2023-02-24T10:28:22.872Z,97598.94
2023-02-24T10:29:33.441Z,97604.22
2023-02-24T10:30:47.336Z,97599.25
2023-02-24T10:31:54.805Z,97602.84
2023-02-24T10:32:57.354Z,97597.22
2023-02-24T10:34:08.713Z,97598.81
2023-02-24T10:35:17.266Z,97599.59
2023-02-24T10:36:19.406Z,97597.72
2023-02-24T10:37:28.230Z,97597.41
2023-02-24T10:38:30.094Z,97598.16
2023-02-24T10:39:31.578Z,97591.22
2023-02-24T10:40:33.706Z,97588.56
2023-02-24T10:41:48.816Z,97591.22
2023-02-24T10:42:50.171Z,97590.13
2023-02-24T10:43:55.611Z,97584.50
2023-02-24T10:45:09.805Z,97584.34
2023-02-24T10:46:39.927Z,97584.34
2023-02-24T10:47:43.815Z,97575.34
2023-02-24T10:48:52.299Z,97576.41
2023-02-24T10:49:58.161Z,97579.81
2023-02-24T10:50:59.469Z,97575.47
2023-02-24T10:52:00.767Z,97572.53
2023-02-24T10:53:05.586Z,97571.91
2023-02-24T10:54:14.803Z,97566.78
2023-02-24T10:55:33.017Z,97567.88
2023-02-24T10:56:34.347Z,97561.03
2023-02-24T10:57:58.157Z,97565.81
2023-02-24T10:59:04.061Z,97559.75
2023-02-24T11:00:15.041Z,97552.00
2023-02-24T11:01:24.009Z,97558.38
2023-02-24T11:02:26.904Z,97556.50
2023-02-24T11:03:32.950Z,97555.41
2023-02-24T11:04:36.922Z,97540.16
2023-02-24T11:05:43.097Z,97552.59
2023-02-24T11:06:44.516Z,97551.97
2023-02-24T11:07:45.820Z,97541.50
2023-02-24T11:08:58.685Z,97543.34
2023-02-24T11:10:11.296Z,97540.38
2023-02-24T11:11:21.573Z,97538.22
2023-02-24T11:12:24.116Z,97538.84
2023-02-24T11:13:26.272Z,97531.69
2023-02-24T11:14:28.099Z,97531.41
2023-02-24T11:15:32.700Z,97525.78
2023-02-24T11:16:40.983Z,97526.06
2023-02-24T11:17:56.598Z,97526.22
2023-02-24T11:18:58.102Z,97515.97
2023-02-24T11:20:02.450Z,97518.28
2023-02-24T11:21:05.240Z,97524.97
2023-02-24T11:22:07.530Z,97523.88
2023-02-24T11:23:13.268Z,97520.13
2023-02-24T11:24:18.663Z,97513.63
2023-02-24T11:25:25.595Z,97515.63
2023-02-24T11:26:37.432Z,97508.28
2023-02-24T11:27:41.144Z,97503.28
2023-02-24T11:28:52.855Z,97505.75
2023-02-24T11:30:05.025Z,97507.91
2023-02-24T11:31:31.902Z,97506.22
2023-02-24T11:32:36.353Z,97501.84
2023-02-24T11:33:44.636Z,97506.84
2023-02-24T11:35:04.913Z,97505.41
2023-02-24T11:36:09.432Z,97494.69
2023-02-24T11:37:20.903Z,97495.94
2023-02-24T11:38:28.221Z,97490.00
2023-02-24T11:39:52.044Z,97494.94
2023-02-24T11:41:12.092Z,97488.34
2023-02-24T11:42:16.490Z,97487.56
2023-02-24T11:43:19.382Z,97482.53
2023-02-24T11:44:27.365Z,97476.47
2023-02-24T11:45:33.645Z,97479.44
2023-02-24T11:46:47.304Z,97477.38
2023-02-24T11:47:53.165Z,97475.69
2023-02-24T11:48:56.704Z,97470.53
2023-02-24T11:50:16.932Z,97466.91
2023-02-24T11:51:20.962Z,97464.88
2023-02-24T11:52:28.640Z,97463.16
2023-02-24T11:53:34.308Z,97455.50
2023-02-24T11:54:38.463Z,97448.81
2023-02-24T11:55:41.115Z,97441.66
2023-02-24T11:56:45.473Z,97433.72
2023-02-24T11:57:51.218Z,97427.31
2023-02-24T11:58:58.407Z,97430.63
2023-02-24T12:00:15.944Z,97433.31
2023-02-24T12:01:22.580Z,97423.38
2023-02-24T12:02:45.980Z,97419.75
2023-02-24T12:04:06.056Z,97407.25
2023-02-24T12:05:10.789Z,97412.91
2023-02-24T12:06:16.798Z,97408.19
2023-02-24T12:07:22.383Z,97413.00
2023-02-24T12:08:26.805Z,97413.50
2023-02-24T12:09:30.760Z,97427.47
2023-02-24T12:10:36.026Z,97418.69
2023-02-24T12:11:42.817Z,97423.31
2023-02-24T12:13:03.352Z,97426.63
2023-02-24T12:14:21.541Z,97414.31
2023-02-24T12:15:25.779Z,97413.19
2023-02-24T12:16:33.029Z,97414.31
2023-02-24T12:17:40.904Z,97415.84
2023-02-24T12:18:50.532Z,97404.78
2023-02-24T12:20:18.386Z,97397.09
2023-02-24T12:21:34.531Z,97397.03
2023-02-24T12:22:43.880Z,97387.56
2023-02-24T12:23:46.758Z,97395.06
2023-02-24T12:24:51.888Z,97386.78
2023-02-24T12:25:55.959Z,97386.13
2023-02-24T12:27:00.246Z,97388.38
2023-02-24T12:28:20.239Z,97378.19
2023-02-24T12:29:47.832Z,97379.31
2023-02-24T12:31:08.016Z,97377.03
2023-02-24T12:32:30.754Z,97369.84
2023-02-24T12:33:35.279Z,97361.69
2023-02-24T12:34:44.126Z,97356.03
2023-02-24T12:35:59.079Z,97361.88
2023-02-24T12:37:15.602Z,97363.66
2023-02-24T12:38:35.902Z,97357.38
2023-02-24T12:39:58.638Z,97359.78
2023-02-24T12:41:12.260Z,97358.59
2023-02-24T12:42:26.385Z,97351.53
2023-02-24T12:43:32.459Z,97354.41